Ballantine, Montana
Current Conditions -  °F | °C
As of 5:53 PM on Monday 26 Jan 2015 (Local Time) from KBIL Reporting Station
Clear Clear  
Wind Chill: 53°   Ceiling: Unl
Heat Index: 53°   Visibility: 10mi
Dew Point: 27°   Wind: 24mph
Humidity: 37%   Direction: 240°WSW
Pressure: 30"   Gusts: 30mph
Location:  45.95°N, 108.15°W
Report Text: KBIL 270053Z 24021G26KT 10SM CLR 12/M03 A3000 RMK AO2 PK WND 24028/0040 SLP159 T01171028
Loading
Personal Weather Stations






























Interactive Weather Map New forecast layout! Learn more

10-Day Weather Forecast

Advertisements
Track Severe Weather on mobile